sensor_id;sensor_type;location;lat;lon;timestamp;temperature;humidity
23395;DHT22;11870;53.084;18.206;2023-04-25T00:06:47;11.60;99.90
23395;DHT22;11870;53.084;18.206;2023-04-25T00:14:07;11.50;99.90
23395;DHT22;11870;53.084;18.206;2023-04-25T00:23:57;11.50;99.90
23395;DHT22;11870;53.084;18.206;2023-04-25T00:36:10;11.60;99.90
23395;DHT22;11870;53.084;18.206;2023-04-25T00:41:07;11.50;99.90
23395;DHT22;11870;53.084;18.206;2023-04-25T00:43:33;11.50;99.90
23395;DHT22;11870;53.084;18.206;2023-04-25T00:46:00;11.50;99.90
23395;DHT22;11870;53.084;18.206;2023-04-25T00:51:07;11.50;99.90
23395;DHT22;11870;53.084;18.206;2023-04-25T00:53:33;11.60;99.90
23395;DHT22;11870;53.084;18.206;2023-04-25T00:55:59;11.50;99.90
23395;DHT22;11870;53.084;18.206;2023-04-25T00:58:25;11.50;99.90
23395;DHT22;11870;53.084;18.206;2023-04-25T01:00:51;11.50;99.90
23395;DHT22;11870;53.084;18.206;2023-04-25T01:03:18;11.50;99.90
23395;DHT22;11870;53.084;18.206;2023-04-25T01:05:47;12.10;99.90
23395;DHT22;11870;53.084;18.206;2023-04-25T01:08:14;11.30;99.90
23395;DHT22;11870;53.084;18.206;2023-04-25T01:10:40;11.40;99.90
23395;DHT22;11870;53.084;18.206;2023-04-25T01:13:07;11.40;99.90
23395;DHT22;11870;53.084;18.206;2023-04-25T01:15:33;11.40;99.90
23395;DHT22;11870;53.084;18.206;2023-04-25T01:17:59;12.70;99.90
23395;DHT22;11870;53.084;18.206;2023-04-25T01:20:26;11.40;99.90
23395;DHT22;11870;53.084;18.206;2023-04-25T01:22:55;11.30;99.90
23395;DHT22;11870;53.084;18.206;2023-04-25T01:25:22;11.30;99.90
23395;DHT22;11870;53.084;18.206;2023-04-25T01:27:48;12.70;99.90
23395;DHT22;11870;53.084;18.206;2023-04-25T01:30:14;11.20;99.90
23395;DHT22;11870;53.084;18.206;2023-04-25T01:32:42;11.20;99.90
23395;DHT22;11870;53.084;18.206;2023-04-25T01:35:10;11.70;99.90
23395;DHT22;11870;53.084;18.206;2023-04-25T01:37:41;11.10;99.90
23395;DHT22;11870;53.084;18.206;2023-04-25T01:40:09;12.70;99.90
23395;DHT22;11870;53.084;18.206;2023-04-25T01:42:38;11.00;99.90
23395;DHT22;11870;53.084;18.206;2023-04-25T01:45:04;12.40;99.90
23395;DHT22;11870;53.084;18.206;2023-04-25T01:47:31;10.80;99.90
23395;DHT22;11870;53.084;18.206;2023-04-25T01:49:57;12.40;99.90
23395;DHT22;11870;53.084;18.206;2023-04-25T01:52:23;10.70;99.90
23395;DHT22;11870;53.084;18.206;2023-04-25T01:54:49;10.70;99.90
23395;DHT22;11870;53.084;18.206;2023-04-25T01:57:16;10.70;99.90
23395;DHT22;11870;53.084;18.206;2023-04-25T01:59:43;10.60;99.90
23395;DHT22;11870;53.084;18.206;2023-04-25T02:02:09;10.60;99.90
23395;DHT22;11870;53.084;18.206;2023-04-25T02:04:35;10.60;99.90
23395;DHT22;11870;53.084;18.206;2023-04-25T02:07:01;10.60;99.90
23395;DHT22;11870;53.084;18.206;2023-04-25T02:09:27;10.50;99.90
23395;DHT22;11870;53.084;18.206;2023-04-25T02:11:53;10.40;99.90
23395;DHT22;11870;53.084;18.206;2023-04-25T02:14:19;10.40;99.90
23395;DHT22;11870;53.084;18.206;2023-04-25T02:16:45;11.70;99.90
23395;DHT22;11870;53.084;18.206;2023-04-25T02:19:12;10.20;99.90
23395;DHT22;11870;53.084;18.206;2023-04-25T02:21:38;10.20;99.90
23395;DHT22;11870;53.084;18.206;2023-04-25T02:24:04;10.70;99.90
23395;DHT22;11870;53.084;18.206;2023-04-25T02:26:30;10.10;99.90
23395;DHT22;11870;53.084;18.206;2023-04-25T02:28:57;10.10;99.90
23395;DHT22;11870;53.084;18.206;2023-04-25T02:31:23;10.00;99.90
23395;DHT22;11870;53.084;18.206;2023-04-25T02:33:49;10.00;99.90
23395;DHT22;11870;53.084;18.206;2023-04-25T02:36:15;9.90;99.90
23395;DHT22;11870;53.084;18.206;2023-04-25T02:38:41;9.80;99.90
23395;DHT22;11870;53.084;18.206;2023-04-25T02:41:07;9.80;99.90
23395;DHT22;11870;53.084;18.206;2023-04-25T02:43:33;9.70;99.90
23395;DHT22;11870;53.084;18.206;2023-04-25T02:45:59;11.40;99.90
23395;DHT22;11870;53.084;18.206;2023-04-25T02:48:25;9.60;99.90
23395;DHT22;11870;53.084;18.206;2023-04-25T02:50:51;9.50;99.90
23395;DHT22;11870;53.084;18.206;2023-04-25T02:53:17;9.40;99.90
23395;DHT22;11870;53.084;18.206;2023-04-25T02:55:43;9.50;99.90
23395;DHT22;11870;53.084;18.206;2023-04-25T02:58:08;10.10;99.90
23395;DHT22;11870;53.084;18.206;2023-04-25T03:00:34;9.30;99.90
23395;DHT22;11870;53.084;18.206;2023-04-25T03:03:00;9.30;99.90
23395;DHT22;11870;53.084;18.206;2023-04-25T03:05:26;9.20;99.90
23395;DHT22;11870;53.084;18.206;2023-04-25T03:07:52;9.20;99.90
23395;DHT22;11870;53.084;18.206;2023-04-25T03:10:18;9.10;99.90
23395;DHT22;11870;53.084;18.206;2023-04-25T03:12:44;10.60;99.90
23395;DHT22;11870;53.084;18.206;2023-04-25T03:15:10;9.80;99.90
23395;DHT22;11870;53.084;18.206;2023-04-25T03:17:36;9.10;99.90
23395;DHT22;11870;53.084;18.206;2023-04-25T03:20:02;9.20;99.90
23395;DHT22;11870;53.084;18.206;2023-04-25T03:22:29;9.10;99.90
23395;DHT22;11870;53.084;18.206;2023-04-25T03:24:55;9.10;99.90
23395;DHT22;11870;53.084;18.206;2023-04-25T03:27:21;10.70;99.90
23395;DHT22;11870;53.084;18.206;2023-04-25T03:29:47;10.70;99.90
23395;DHT22;11870;53.084;18.206;2023-04-25T03:32:13;9.00;99.90
23395;DHT22;11870;53.084;18.206;2023-04-25T03:34:39;8.90;99.90
23395;DHT22;11870;53.084;18.206;2023-04-25T03:37:05;10.00;99.90
23395;DHT22;11870;53.084;18.206;2023-04-25T03:39:31;8.80;99.90
23395;DHT22;11870;53.084;18.206;2023-04-25T03:41:57;8.80;99.90
23395;DHT22;11870;53.084;18.206;2023-04-25T03:44:23;8.80;99.90
23395;DHT22;11870;53.084;18.206;2023-04-25T03:46:50;8.80;99.90
23395;DHT22;11870;53.084;18.206;2023-04-25T03:49:16;8.70;99.90
23395;DHT22;11870;53.084;18.206;2023-04-25T03:51:42;8.70;99.90
23395;DHT22;11870;53.084;18.206;2023-04-25T03:54:08;8.70;99.90
23395;DHT22;11870;53.084;18.206;2023-04-25T03:56:34;8.70;99.90
23395;DHT22;11870;53.084;18.206;2023-04-25T03:59:00;8.70;99.90
23395;DHT22;11870;53.084;18.206;2023-04-25T04:01:26;8.60;99.90
23395;DHT22;11870;53.084;18.206;2023-04-25T04:03:52;10.40;99.90
23395;DHT22;11870;53.084;18.206;2023-04-25T04:06:18;8.80;99.90
23395;DHT22;11870;53.084;18.206;2023-04-25T04:08:44;8.90;99.90
23395;DHT22;11870;53.084;18.206;2023-04-25T04:11:10;8.90;99.90
23395;DHT22;11870;53.084;18.206;2023-04-25T04:13:36;8.90;99.90
23395;DHT22;11870;53.084;18.206;2023-04-25T04:16:02;9.00;99.90
23395;DHT22;11870;53.084;18.206;2023-04-25T04:18:30;9.00;99.90
23395;DHT22;11870;53.084;18.206;2023-04-25T04:20:56;9.00;99.90
23395;DHT22;11870;53.084;18.206;2023-04-25T04:23:24;9.30;99.90
23395;DHT22;11870;53.084;18.206;2023-04-25T04:25:50;9.30;99.90
23395;DHT22;11870;53.084;18.206;2023-04-25T04:28:16;9.50;99.90
23395;DHT22;11870;53.084;18.206;2023-04-25T04:30:42;9.60;99.90
23395;DHT22;11870;53.084;18.206;2023-04-25T04:33:13;11.50;99.90
23395;DHT22;11870;53.084;18.206;2023-04-25T04:35:41;10.10;99.90
23395;DHT22;11870;53.084;18.206;2023-04-25T04:38:07;10.30;99.90
23395;DHT22;11870;53.084;18.206;2023-04-25T04:40:33;10.40;99.90
23395;DHT22;11870;53.084;18.206;2023-04-25T04:42:59;10.60;99.90
23395;DHT22;11870;53.084;18.206;2023-04-25T04:45:25;10.70;99.90
23395;DHT22;11870;53.084;18.206;2023-04-25T04:47:53;10.80;99.90
23395;DHT22;11870;53.084;18.206;2023-04-25T04:50:20;11.40;99.90
23395;DHT22;11870;53.084;18.206;2023-04-25T04:52:46;11.10;99.90
23395;DHT22;11870;53.084;18.206;2023-04-25T04:55:12;10.90;99.90
23395;DHT22;11870;53.084;18.206;2023-04-25T04:57:38;10.90;99.90
23395;DHT22;11870;53.084;18.206;2023-04-25T05:00:05;10.90;99.90
23395;DHT22;11870;53.084;18.206;2023-04-25T05:02:37;10.80;99.90
23395;DHT22;11870;53.084;18.206;2023-04-25T05:05:05;10.70;99.90
23395;DHT22;11870;53.084;18.206;2023-04-25T05:07:32;10.60;99.90
23395;DHT22;11870;53.084;18.206;2023-04-25T05:09:58;10.50;99.90
23395;DHT22;11870;53.084;18.206;2023-04-25T05:12:24;10.50;99.90
23395;DHT22;11870;53.084;18.206;2023-04-25T05:14:50;10.40;99.90
23395;DHT22;11870;53.084;18.206;2023-04-25T05:17:16;10.40;99.90
23395;DHT22;11870;53.084;18.206;2023-04-25T05:19:41;10.40;99.90
23395;DHT22;11870;53.084;18.206;2023-04-25T05:22:08;10.40;99.90
23395;DHT22;11870;53.084;18.206;2023-04-25T05:24:33;10.40;99.90
23395;DHT22;11870;53.084;18.206;2023-04-25T05:26:59;10.60;99.90
23395;DHT22;11870;53.084;18.206;2023-04-25T05:29:25;10.50;99.90
23395;DHT22;11870;53.084;18.206;2023-04-25T05:31:51;11.70;99.90
23395;DHT22;11870;53.084;18.206;2023-04-25T05:34:18;11.20;99.90
23395;DHT22;11870;53.084;18.206;2023-04-25T05:36:44;10.60;99.90
23395;DHT22;11870;53.084;18.206;2023-04-25T05:39:17;12.30;99.90
23395;DHT22;11870;53.084;18.206;2023-04-25T05:41:43;10.70;99.90
23395;DHT22;11870;53.084;18.206;2023-04-25T05:44:09;11.90;99.90
23395;DHT22;11870;53.084;18.206;2023-04-25T05:46:35;11.00;99.90
23395;DHT22;11870;53.084;18.206;2023-04-25T05:49:01;11.10;99.90
23395;DHT22;11870;53.084;18.206;2023-04-25T05:51:27;12.90;99.90
23395;DHT22;11870;53.084;18.206;2023-04-25T05:53:53;11.50;99.90
23395;DHT22;11870;53.084;18.206;2023-04-25T05:56:19;11.80;99.90
23395;DHT22;11870;53.084;18.206;2023-04-25T05:58:45;12.00;99.90
23395;DHT22;11870;53.084;18.206;2023-04-25T06:01:12;12.30;99.90
23395;DHT22;11870;53.084;18.206;2023-04-25T06:03:38;12.80;99.90
23395;DHT22;11870;53.084;18.206;2023-04-25T06:06:04;13.40;99.90
23395;DHT22;11870;53.084;18.206;2023-04-25T06:08:31;13.10;99.90
23395;DHT22;11870;53.084;18.206;2023-04-25T06:10:57;13.60;99.90
23395;DHT22;11870;53.084;18.206;2023-04-25T06:13:23;13.70;99.90
23395;DHT22;11870;53.084;18.206;2023-04-25T06:15:49;14.30;99.90
23395;DHT22;11870;53.084;18.206;2023-04-25T06:18:15;15.30;99.90
23395;DHT22;11870;53.084;18.206;2023-04-25T06:20:41;16.20;99.90
23395;DHT22;11870;53.084;18.206;2023-04-25T06:23:06;16.90;95.50
23395;DHT22;11870;53.084;18.206;2023-04-25T06:25:33;17.40;91.60
23395;DHT22;11870;53.084;18.206;2023-04-25T06:27:58;17.60;85.10
23395;DHT22;11870;53.084;18.206;2023-04-25T06:30:24;17.70;82.10
23395;DHT22;11870;53.084;18.206;2023-04-25T06:32:52;17.90;81.50
23395;DHT22;11870;53.084;18.206;2023-04-25T06:35:19;17.90;74.20
23395;DHT22;11870;53.084;18.206;2023-04-25T06:37:45;18.00;74.50
23395;DHT22;11870;53.084;18.206;2023-04-25T06:40:11;18.10;72.40
23395;DHT22;11870;53.084;18.206;2023-04-25T06:42:37;18.30;71.30
23395;DHT22;11870;53.084;18.206;2023-04-25T06:45:03;18.70;69.10
23395;DHT22;11870;53.084;18.206;2023-04-25T06:47:29;19.40;66.40
23395;DHT22;11870;53.084;18.206;2023-04-25T06:49:56;20.40;65.40
23395;DHT22;11870;53.084;18.206;2023-04-25T06:52:23;21.80;57.80
23395;DHT22;11870;53.084;18.206;2023-04-25T06:54:49;23.20;51.90
23395;DHT22;11870;53.084;18.206;2023-04-25T06:57:15;23.90;48.40
23395;DHT22;11870;53.084;18.206;2023-04-25T06:59:41;24.30;43.90
23395;DHT22;11870;53.084;18.206;2023-04-25T07:02:07;24.30;44.30
23395;DHT22;11870;53.084;18.206;2023-04-25T07:04:33;24.10;43.90
23395;DHT22;11870;53.084;18.206;2023-04-25T07:06:59;25.00;39.90
23395;DHT22;11870;53.084;18.206;2023-04-25T07:09:28;25.10;40.30
23395;DHT22;11870;53.084;18.206;2023-04-25T07:11:54;25.70;39.80
23395;DHT22;11870;53.084;18.206;2023-04-25T07:14:20;25.80;38.00
23395;DHT22;11870;53.084;18.206;2023-04-25T07:16:46;25.60;38.20
23395;DHT22;11870;53.084;18.206;2023-04-25T07:19:12;25.60;38.00
23395;DHT22;11870;53.084;18.206;2023-04-25T07:21:38;25.70;37.90
23395;DHT22;11870;53.084;18.206;2023-04-25T07:24:04;25.70;37.20
23395;DHT22;11870;53.084;18.206;2023-04-25T07:26:30;25.70;37.30
23395;DHT22;11870;53.084;18.206;2023-04-25T07:28:56;25.80;36.80
23395;DHT22;11870;53.084;18.206;2023-04-25T07:31:22;26.10;36.20
23395;DHT22;11870;53.084;18.206;2023-04-25T07:33:48;26.70;35.20
23395;DHT22;11870;53.084;18.206;2023-04-25T07:36:15;27.40;34.60
23395;DHT22;11870;53.084;18.206;2023-04-25T07:38:41;28.70;33.50
23395;DHT22;11870;53.084;18.206;2023-04-25T07:41:07;29.90;31.30
23395;DHT22;11870;53.084;18.206;2023-04-25T07:43:33;30.00;30.00
23395;DHT22;11870;53.084;18.206;2023-04-25T07:45:59;29.00;29.80
23395;DHT22;11870;53.084;18.206;2023-04-25T07:48:25;28.30;30.00
23395;DHT22;11870;53.084;18.206;2023-04-25T07:50:50;27.60;31.10
23395;DHT22;11870;53.084;18.206;2023-04-25T07:53:16;27.40;30.80
23395;DHT22;11870;53.084;18.206;2023-04-25T07:55:44;27.70;30.10
23395;DHT22;11870;53.084;18.206;2023-04-25T07:58:12;27.40;29.20
23395;DHT22;11870;53.084;18.206;2023-04-25T08:00:38;27.10;30.10
23395;DHT22;11870;53.084;18.206;2023-04-25T08:03:04;26.30;30.80
23395;DHT22;11870;53.084;18.206;2023-04-25T08:05:30;26.40;32.90
23395;DHT22;11870;53.084;18.206;2023-04-25T08:07:56;24.70;33.50
23395;DHT22;11870;53.084;18.206;2023-04-25T08:10:22;24.00;34.50
23395;DHT22;11870;53.084;18.206;2023-04-25T08:12:48;23.60;35.20
23395;DHT22;11870;53.084;18.206;2023-04-25T08:15:15;23.20;36.00
23395;DHT22;11870;53.084;18.206;2023-04-25T08:17:42;22.30;37.40
23395;DHT22;11870;53.084;18.206;2023-04-25T08:20:12;21.90;38.90
23395;DHT22;11870;53.084;18.206;2023-04-25T08:22:38;21.30;39.70
23395;DHT22;11870;53.084;18.206;2023-04-25T08:25:04;22.30;40.80
23395;DHT22;11870;53.084;18.206;2023-04-25T08:27:30;20.30;41.30
23395;DHT22;11870;53.084;18.206;2023-04-25T08:29:56;21.50;44.10
23395;DHT22;11870;53.084;18.206;2023-04-25T08:32:23;21.60;45.70
23395;DHT22;11870;53.084;18.206;2023-04-25T08:34:49;18.80;46.80
23395;DHT22;11870;53.084;18.206;2023-04-25T08:37:16;18.30;47.10
23395;DHT22;11870;53.084;18.206;2023-04-25T08:39:45;17.90;48.90
23395;DHT22;11870;53.084;18.206;2023-04-25T08:42:12;17.60;50.10
23395;DHT22;11870;53.084;18.206;2023-04-25T08:44:38;18.80;51.10
23395;DHT22;11870;53.084;18.206;2023-04-25T08:47:04;17.20;50.50
23395;DHT22;11870;53.084;18.206;2023-04-25T08:49:34;17.20;51.40
23395;DHT22;11870;53.084;18.206;2023-04-25T08:52:02;16.90;51.60
23395;DHT22;11870;53.084;18.206;2023-04-25T08:54:31;18.70;53.40
23395;DHT22;11870;53.084;18.206;2023-04-25T08:57:00;16.80;52.40
23395;DHT22;11870;53.084;18.206;2023-04-25T08:59:28;16.70;53.80
23395;DHT22;11870;53.084;18.206;2023-04-25T09:01:54;16.90;53.90
23395;DHT22;11870;53.084;18.206;2023-04-25T09:04:20;17.10;54.00
23395;DHT22;11870;53.084;18.206;2023-04-25T09:06:47;20.10;54.60
23395;DHT22;11870;53.084;18.206;2023-04-25T09:09:13;17.40;52.00
23395;DHT22;11870;53.084;18.206;2023-04-25T09:11:39;18.10;52.00
23395;DHT22;11870;53.084;18.206;2023-04-25T09:16:58;17.70;51.30
23395;DHT22;11870;53.084;18.206;2023-04-25T09:21:57;17.70;50.90
23395;DHT22;11870;53.084;18.206;2023-04-25T09:24:50;17.90;51.20
23395;DHT22;11870;53.084;18.206;2023-04-25T09:27:20;18.10;50.10
23395;DHT22;11870;53.084;18.206;2023-04-25T09:29:57;18.30;49.30
23395;DHT22;11870;53.084;18.206;2023-04-25T09:32:24;19.30;48.90
23395;DHT22;11870;53.084;18.206;2023-04-25T09:34:57;18.50;48.90
23395;DHT22;11870;53.084;18.206;2023-04-25T09:37:30;18.50;49.20
23395;DHT22;11870;53.084;18.206;2023-04-25T09:39:58;18.50;49.30
23395;DHT22;11870;53.084;18.206;2023-04-25T09:42:31;18.60;49.50
23395;DHT22;11870;53.084;18.206;2023-04-25T09:44:58;19.40;50.00
23395;DHT22;11870;53.084;18.206;2023-04-25T09:47:25;18.50;49.90
23395;DHT22;11870;53.084;18.206;2023-04-25T09:49:53;19.70;49.50
23395;DHT22;11870;53.084;18.206;2023-04-25T09:52:23;18.90;48.90
23395;DHT22;11870;53.084;18.206;2023-04-25T09:54:50;19.20;47.90
23395;DHT22;11870;53.084;18.206;2023-04-25T09:57:18;20.80;47.70
23395;DHT22;11870;53.084;18.206;2023-04-25T09:59:52;21.00;47.20
23395;DHT22;11870;53.084;18.206;2023-04-25T10:02:23;19.70;46.20
23395;DHT22;11870;53.084;18.206;2023-04-25T10:04:51;19.30;44.30
23395;DHT22;11870;53.084;18.206;2023-04-25T10:07:20;19.20;45.40
23395;DHT22;11870;53.084;18.206;2023-04-25T10:09:49;20.00;45.50
23395;DHT22;11870;53.084;18.206;2023-04-25T10:12:18;18.70;46.00
23395;DHT22;11870;53.084;18.206;2023-04-25T10:14:44;18.90;47.10
23395;DHT22;11870;53.084;18.206;2023-04-25T10:17:11;18.90;46.70
23395;DHT22;11870;53.084;18.206;2023-04-25T10:19:37;19.30;46.10
23395;DHT22;11870;53.084;18.206;2023-04-25T10:24:32;18.40;47.20
23395;DHT22;11870;53.084;18.206;2023-04-25T10:26:58;18.30;47.40
23395;DHT22;11870;53.084;18.206;2023-04-25T10:29:25;18.10;48.10
23395;DHT22;11870;53.084;18.206;2023-04-25T10:31:51;18.10;48.10
23395;DHT22;11870;53.084;18.206;2023-04-25T10:34:18;19.50;48.10
23395;DHT22;11870;53.084;18.206;2023-04-25T10:36:50;18.10;47.10
23395;DHT22;11870;53.084;18.206;2023-04-25T10:39:22;18.20;47.10
23395;DHT22;11870;53.084;18.206;2023-04-25T10:41:58;18.40;45.90
23395;DHT22;11870;53.084;18.206;2023-04-25T10:44:28;19.40;46.00
23395;DHT22;11870;53.084;18.206;2023-04-25T10:47:00;18.50;45.20
23395;DHT22;11870;53.084;18.206;2023-04-25T10:49:42;19.50;45.70
23395;DHT22;11870;53.084;18.206;2023-04-25T10:55:02;18.00;47.30
23395;DHT22;11870;53.084;18.206;2023-04-25T10:57:41;18.00;48.00
23395;DHT22;11870;53.084;18.206;2023-04-25T11:00:25;17.90;48.60
23395;DHT22;11870;53.084;18.206;2023-04-25T11:02:57;18.00;48.30
23395;DHT22;11870;53.084;18.206;2023-04-25T11:05:32;17.80;48.50
23395;DHT22;11870;53.084;18.206;2023-04-25T11:07:59;17.90;48.60
23395;DHT22;11870;53.084;18.206;2023-04-25T11:10:33;18.60;49.00
23395;DHT22;11870;53.084;18.206;2023-04-25T11:13:01;17.80;49.00
23395;DHT22;11870;53.084;18.206;2023-04-25T11:15:27;18.50;49.00
23395;DHT22;11870;53.084;18.206;2023-04-25T11:17:54;17.70;48.90
23395;DHT22;11870;53.084;18.206;2023-04-25T11:20:22;17.80;49.10
23395;DHT22;11870;53.084;18.206;2023-04-25T11:22:48;17.80;49.50
23395;DHT22;11870;53.084;18.206;2023-04-25T11:25:15;17.90;49.10
23395;DHT22;11870;53.084;18.206;2023-04-25T11:27:56;17.90;48.30
23395;DHT22;11870;53.084;18.206;2023-04-25T11:30:24;18.00;47.70
23395;DHT22;11870;53.084;18.206;2023-04-25T11:32:50;18.00;47.80
23395;DHT22;11870;53.084;18.206;2023-04-25T11:35:18;18.00;46.90
23395;DHT22;11870;53.084;18.206;2023-04-25T11:37:45;19.80;48.10
23395;DHT22;11870;53.084;18.206;2023-04-25T11:40:11;18.10;47.00
23395;DHT22;11870;53.084;18.206;2023-04-25T11:42:46;18.10;47.30
23395;DHT22;11870;53.084;18.206;2023-04-25T11:45:13;18.20;47.90
23395;DHT22;11870;53.084;18.206;2023-04-25T11:50:07;18.40;47.60
23395;DHT22;11870;53.084;18.206;2023-04-25T11:52:44;18.40;47.60
23395;DHT22;11870;53.084;18.206;2023-04-25T11:55:15;18.50;47.70
23395;DHT22;11870;53.084;18.206;2023-04-25T11:57:42;18.50;47.90
23395;DHT22;11870;53.084;18.206;2023-04-25T12:00:10;18.40;48.80
23395;DHT22;11870;53.084;18.206;2023-04-25T12:02:37;18.30;48.60
23395;DHT22;11870;53.084;18.206;2023-04-25T12:05:07;18.00;48.50
23395;DHT22;11870;53.084;18.206;2023-04-25T12:07:34;17.90;49.10
23395;DHT22;11870;53.084;18.206;2023-04-25T12:10:11;17.60;49.40
23395;DHT22;11870;53.084;18.206;2023-04-25T12:12:37;17.20;49.90
23395;DHT22;11870;53.084;18.206;2023-04-25T12:15:11;16.80;50.40
23395;DHT22;11870;53.084;18.206;2023-04-25T12:17:41;16.50;50.70
23395;DHT22;11870;53.084;18.206;2023-04-25T12:20:19;16.20;51.80
23395;DHT22;11870;53.084;18.206;2023-04-25T12:22:47;15.90;52.20
23395;DHT22;11870;53.084;18.206;2023-04-25T12:25:33;15.80;52.70
23395;DHT22;11870;53.084;18.206;2023-04-25T12:28:22;15.60;53.10
23395;DHT22;11870;53.084;18.206;2023-04-25T12:30:57;15.40;53.70
23395;DHT22;11870;53.084;18.206;2023-04-25T12:33:24;15.40;53.70
23395;DHT22;11870;53.084;18.206;2023-04-25T12:35:50;15.50;53.90
23395;DHT22;11870;53.084;18.206;2023-04-25T12:38:23;16.60;54.90
23395;DHT22;11870;53.084;18.206;2023-04-25T12:40:50;15.50;54.90
23395;DHT22;11870;53.084;18.206;2023-04-25T12:43:16;15.50;55.20
23395;DHT22;11870;53.084;18.206;2023-04-25T12:45:42;15.50;54.50
23395;DHT22;11870;53.084;18.206;2023-04-25T12:48:08;15.70;54.90
23395;DHT22;11870;53.084;18.206;2023-04-25T12:50:34;15.70;54.70
23395;DHT22;11870;53.084;18.206;2023-04-25T12:53:00;15.90;54.80
23395;DHT22;11870;53.084;18.206;2023-04-25T12:55:26;16.10;53.90
23395;DHT22;11870;53.084;18.206;2023-04-25T12:57:52;16.40;53.40
23395;DHT22;11870;53.084;18.206;2023-04-25T13:00:19;16.60;52.50
23395;DHT22;11870;53.084;18.206;2023-04-25T13:05:13;16.90;49.20
23395;DHT22;11870;53.084;18.206;2023-04-25T13:07:38;17.00;49.40
23395;DHT22;11870;53.084;18.206;2023-04-25T13:10:05;18.50;49.60
23395;DHT22;11870;53.084;18.206;2023-04-25T13:12:31;17.70;48.20
23395;DHT22;11870;53.084;18.206;2023-04-25T13:14:57;17.80;47.90
23395;DHT22;11870;53.084;18.206;2023-04-25T13:19:50;18.30;46.90
23395;DHT22;11870;53.084;18.206;2023-04-25T13:22:16;18.40;46.90
23395;DHT22;11870;53.084;18.206;2023-04-25T13:24:43;18.50;47.10
23395;DHT22;11870;53.084;18.206;2023-04-25T13:27:09;18.50;46.40
23395;DHT22;11870;53.084;18.206;2023-04-25T13:29:35;18.30;46.50
23395;DHT22;11870;53.084;18.206;2023-04-25T13:32:01;18.20;47.10
23395;DHT22;11870;53.084;18.206;2023-04-25T13:34:31;18.40;47.30
23395;DHT22;11870;53.084;18.206;2023-04-25T13:36:56;18.40;47.80
23395;DHT22;11870;53.084;18.206;2023-04-25T13:41:49;18.30;47.50
23395;DHT22;11870;53.084;18.206;2023-04-25T13:44:15;18.30;46.70
23395;DHT22;11870;53.084;18.206;2023-04-25T13:49:07;18.00;47.30
23395;DHT22;11870;53.084;18.206;2023-04-25T13:51:33;17.70;48.10
23395;DHT22;11870;53.084;18.206;2023-04-25T13:53:59;17.50;48.70
23395;DHT22;11870;53.084;18.206;2023-04-25T13:56:25;17.60;50.10
23395;DHT22;11870;53.084;18.206;2023-04-25T14:01:18;17.00;50.90
23395;DHT22;11870;53.084;18.206;2023-04-25T14:03:44;17.00;51.40
23395;DHT22;11870;53.084;18.206;2023-04-25T14:06:10;16.80;51.30
23395;DHT22;11870;53.084;18.206;2023-04-25T14:08:38;16.70;52.00
23395;DHT22;11870;53.084;18.206;2023-04-25T14:11:04;16.70;53.40
23395;DHT22;11870;53.084;18.206;2023-04-25T14:13:31;16.70;54.20
23395;DHT22;11870;53.084;18.206;2023-04-25T14:15:57;17.70;55.30
23395;DHT22;11870;53.084;18.206;2023-04-25T14:18:23;16.40;54.50
23395;DHT22;11870;53.084;18.206;2023-04-25T14:23:18;16.20;55.60
23395;DHT22;11870;53.084;18.206;2023-04-25T14:25:44;16.10;55.80
23395;DHT22;11870;53.084;18.206;2023-04-25T14:28:10;16.00;55.30
23395;DHT22;11870;53.084;18.206;2023-04-25T14:33:03;16.00;55.90
23395;DHT22;11870;53.084;18.206;2023-04-25T14:37:55;16.00;56.10
23395;DHT22;11870;53.084;18.206;2023-04-25T14:40:22;16.10;56.70
23395;DHT22;11870;53.084;18.206;2023-04-25T14:42:49;16.20;55.60
23395;DHT22;11870;53.084;18.206;2023-04-25T14:45:16;16.30;55.30
23395;DHT22;11870;53.084;18.206;2023-04-25T14:47:43;16.00;56.70
23395;DHT22;11870;53.084;18.206;2023-04-25T14:50:09;15.70;57.00
23395;DHT22;11870;53.084;18.206;2023-04-25T14:57:33;14.40;62.70
23395;DHT22;11870;53.084;18.206;2023-04-25T14:59:58;14.00;67.70
23395;DHT22;11870;53.084;18.206;2023-04-25T15:02:24;13.50;75.20
23395;DHT22;11870;53.084;18.206;2023-04-25T15:04:52;12.90;95.30
23395;DHT22;11870;53.084;18.206;2023-04-25T15:09:44;12.60;99.90
23395;DHT22;11870;53.084;18.206;2023-04-25T15:14:36;12.30;99.90
23395;DHT22;11870;53.084;18.206;2023-04-25T15:46:19;11.60;99.90
23395;DHT22;11870;53.084;18.206;2023-04-25T15:53:39;12.00;99.90
23395;DHT22;11870;53.084;18.206;2023-04-25T15:58:32;12.00;99.90
23395;DHT22;11870;53.084;18.206;2023-04-25T16:05:51;12.00;99.90
23395;DHT22;11870;53.084;18.206;2023-04-25T16:15:37;12.00;99.90
23395;DHT22;11870;53.084;18.206;2023-04-25T16:22:56;12.00;99.90
23395;DHT22;11870;53.084;18.206;2023-04-25T16:37:35;11.50;99.90
23395;DHT22;11870;53.084;18.206;2023-04-25T16:40:01;11.50;99.90
23395;DHT22;11870;53.084;18.206;2023-04-25T16:59:37;10.90;99.90
23395;DHT22;11870;53.084;18.206;2023-04-25T18:25:11;10.20;99.90
23395;DHT22;11870;53.084;18.206;2023-04-25T18:27:39;10.10;99.90
23395;DHT22;11870;53.084;18.206;2023-04-25T18:30:07;10.00;99.90
23395;DHT22;11870;53.084;18.206;2023-04-25T18:35:00;10.00;99.90
23395;DHT22;11870;53.084;18.206;2023-04-25T18:59:31;9.10;99.90
23395;DHT22;11870;53.084;18.206;2023-04-25T19:19:07;9.10;99.90
23395;DHT22;11870;53.084;18.206;2023-04-25T19:24:02;9.10;99.90
23395;DHT22;11870;53.084;18.206;2023-04-25T19:31:37;8.90;99.90
23395;DHT22;11870;53.084;18.206;2023-04-25T19:34:04;9.00;99.90
23395;DHT22;11870;53.084;18.206;2023-04-25T19:41:33;8.90;99.90
23395;DHT22;11870;53.084;18.206;2023-04-25T19:44:02;8.80;99.90
23395;DHT22;11870;53.084;18.206;2023-04-25T19:46:32;8.70;99.90
23395;DHT22;11870;53.084;18.206;2023-04-25T19:48:59;8.60;99.90
23395;DHT22;11870;53.084;18.206;2023-04-25T19:58:46;8.10;99.90
23395;DHT22;11870;53.084;18.206;2023-04-25T20:08:36;7.80;99.90
23395;DHT22;11870;53.084;18.206;2023-04-25T20:11:02;7.80;99.90
23395;DHT22;11870;53.084;18.206;2023-04-25T20:13:28;7.50;99.90
23395;DHT22;11870;53.084;18.206;2023-04-25T20:20:48;7.50;99.90
23395;DHT22;11870;53.084;18.206;2023-04-25T20:33:01;7.00;99.90
23395;DHT22;11870;53.084;18.206;2023-04-25T20:35:27;9.80;99.90
23395;DHT22;11870;53.084;18.206;2023-04-25T20:45:12;6.70;99.90
23395;DHT22;11870;53.084;18.206;2023-04-25T20:50:06;6.50;99.90
23395;DHT22;11870;53.084;18.206;2023-04-25T20:55:00;6.40;99.90